Time;durP1;ratioP1;P1;durP2;ratioP2;P2;SDS_P1;SDS_P2;PMS_P1;PMS_P2;Temp;Humidity;BMP_temperature;BMP_pressure;BME280_temperature;BME280_humidity;BME280_pressure;Samples;Min_cycle;Max_cycle;Signal;HPM_P1;HPM_P2
2024/01/08 00:01:16;;;;;;;11.98;5.35;;;0.30;99.90;;;;;;5071633;28;20028;-65
2024/01/08 00:03:41;;;;;;;15.00;7.40;;;0.30;99.90;;;;;;5071197;28;20036;-65
2024/01/08 00:06:07;;;;;;;18.33;7.68;;;0.30;99.90;;;;;;5071518;28;20029;-65
2024/01/08 00:08:32;;;;;;;15.65;6.35;;;0.30;99.90;;;;;;5074698;28;20032;-65
2024/01/08 00:10:58;;;;;;;18.27;7.07;;;0.30;99.90;;;;;;5075201;28;20029;-65
2024/01/08 00:13:24;;;;;;;21.05;7.93;;;0.30;99.90;;;;;;5075015;28;20056;-65
2024/01/08 00:15:50;;;;;;;13.65;6.18;;;0.30;99.90;;;;;;5075156;28;20029;-66
2024/01/08 00:18:16;;;;;;;22.63;9.27;;;0.40;99.90;;;;;;5075008;28;20044;-65
2024/01/08 00:20:42;;;;;;;11.65;6.05;;;0.40;99.90;;;;;;5074917;28;20021;-65
2024/01/08 00:23:08;;;;;;;14.98;7.82;;;0.40;99.90;;;;;;5074916;28;20028;-65
2024/01/08 00:25:33;;;;;;;13.80;5.72;;;0.30;99.90;;;;;;5074918;28;20017;-65
2024/01/08 00:28:00;;;;;;;15.90;6.20;;;0.30;99.90;;;;;;5074819;28;20025;-65
2024/01/08 00:30:26;;;;;;;9.57;5.03;;;0.30;99.90;;;;;;5074928;28;20017;-65
2024/01/08 00:32:51;;;;;;;16.15;6.90;;;0.30;99.90;;;;;;5074569;28;20052;-65
2024/01/08 00:35:17;;;;;;;16.33;7.07;;;0.30;99.90;;;;;;5074724;28;20029;-65
2024/01/08 00:37:43;;;;;;;13.07;5.55;;;0.30;99.90;;;;;;5074521;28;20082;-65
2024/01/08 00:40:10;;;;;;;11.90;5.18;;;0.40;99.90;;;;;;5074654;28;20025;-65
2024/01/08 00:42:36;;;;;;;12.15;6.45;;;0.30;99.90;;;;;;5074392;28;20041;-65
2024/01/08 00:45:06;;;;;;;11.68;6.03;;;0.30;99.90;;;;;;5074605;28;20047;-65
2024/01/08 00:47:32;;;;;;;14.10;6.18;;;0.30;99.90;;;;;;5074517;28;20041;-66
2024/01/08 00:49:58;;;;;;;9.60;4.55;;;0.40;99.90;;;;;;5074538;28;20021;-65
2024/01/08 00:52:24;;;;;;;12.23;5.63;;;0.40;99.90;;;;;;5074423;28;20029;-65
2024/01/08 00:54:49;;;;;;;11.88;5.80;;;0.40;99.90;;;;;;5074353;28;20037;-66
2024/01/08 00:57:15;;;;;;;10.75;5.50;;;0.40;99.90;;;;;;5074354;28;20043;-65
2024/01/08 00:59:41;;;;;;;9.60;5.05;;;0.40;99.90;;;;;;5074319;28;20059;-66
2024/01/08 01:02:06;;;;;;;11.13;5.03;;;0.40;99.90;;;;;;5073014;28;20044;-66
2024/01/08 01:04:32;;;;;;;8.38;4.03;;;0.40;99.90;;;;;;5074126;28;20025;-65
2024/01/08 01:06:58;;;;;;;9.35;5.00;;;0.40;99.90;;;;;;5074137;28;20471;-65
2024/01/08 01:09:24;;;;;;;9.23;4.40;;;0.40;99.90;;;;;;5074040;28;20017;-65
2024/01/08 01:11:50;;;;;;;6.68;3.67;;;0.40;99.90;;;;;;5073970;28;20170;-65
2024/01/08 01:14:15;;;;;;;9.18;4.63;;;0.30;99.90;;;;;;5073932;28;20029;-65
2024/01/08 01:16:41;;;;;;;9.68;4.85;;;0.20;99.90;;;;;;5073937;28;20055;-65
2024/01/08 01:19:06;;;;;;;9.43;5.28;;;0.20;99.90;;;;;;5073129;28;20057;-65
2024/01/08 01:21:32;;;;;;;5.97;3.63;;;0.10;99.90;;;;;;5073811;28;20029;-65
2024/01/08 01:23:57;;;;;;;10.57;4.72;;;0.10;99.90;;;;;;5073707;28;20037;-65
2024/01/08 01:26:23;;;;;;;9.80;5.03;;;0.10;99.90;;;;;;5073662;28;20079;-66
2024/01/08 01:28:49;;;;;;;11.13;5.45;;;0.10;99.90;;;;;;5073706;28;20029;-66
2024/01/08 01:31:14;;;;;;;11.07;4.82;;;0.00;99.90;;;;;;5073663;28;20487;-65
2024/01/08 01:33:40;;;;;;;12.18;5.03;;;0.00;99.90;;;;;;5073470;28;20029;-65
2024/01/08 01:36:06;;;;;;;7.38;3.03;;;0.00;99.90;;;;;;5073585;28;20033;-66
2024/01/08 01:38:32;;;;;;;7.35;3.28;;;0.00;99.90;;;;;;5073481;28;20040;-65
2024/01/08 01:40:58;;;;;;;10.15;4.18;;;0.00;99.90;;;;;;5072143;28;20045;-66
2024/01/08 01:43:25;;;;;;;3.83;1.85;;;0.00;99.90;;;;;;5073372;28;20037;-66
2024/01/08 01:45:53;;;;;;;5.88;3.47;;;0.00;99.90;;;;;;5073453;28;20089;-65
2024/01/08 01:48:20;;;;;;;6.93;3.03;;;0.00;99.90;;;;;;5073359;28;20026;-65
2024/01/08 01:50:46;;;;;;;8.35;3.50;;;-0.10;99.90;;;;;;5073402;28;20036;-65
2024/01/08 01:53:12;;;;;;;3.55;1.73;;;-0.10;99.90;;;;;;5073097;28;20067;-65
2024/01/08 01:55:38;;;;;;;3.55;2.17;;;-0.10;99.90;;;;;;5073334;28;20033;-65
2024/01/08 01:58:04;;;;;;;4.30;2.47;;;-0.20;99.90;;;;;;5073114;28;20084;-65
2024/01/08 02:00:30;;;;;;;3.42;1.70;;;-0.20;99.90;;;;;;5073112;28;20032;-65
2024/01/08 02:02:55;;;;;;;4.30;2.30;;;-0.20;99.90;;;;;;5072814;28;20036;-65
2024/01/08 02:05:21;;;;;;;4.90;2.80;;;-0.30;99.90;;;;;;5073015;28;20033;-65
2024/01/08 02:07:48;;;;;;;7.00;3.03;;;-0.30;99.90;;;;;;5072812;28;20025;-65
2024/01/08 02:10:13;;;;;;;3.55;1.92;;;-0.30;99.90;;;;;;5072998;28;20457;-64
2024/01/08 02:12:39;;;;;;;5.47;2.60;;;-0.30;99.90;;;;;;5073003;28;20075;-65
2024/01/08 02:15:05;;;;;;;6.05;3.17;;;-0.40;99.90;;;;;;5072848;28;20036;-65
2024/01/08 02:17:31;;;;;;;6.60;2.95;;;-0.40;99.90;;;;;;5072844;28;20029;-65
2024/01/08 02:19:56;;;;;;;4.47;2.20;;;-0.40;99.90;;;;;;5072757;28;20044;-65
2024/01/08 02:22:22;;;;;;;5.55;2.80;;;-0.50;99.90;;;;;;5071639;28;20048;-65
2024/01/08 02:24:48;;;;;;;6.70;3.35;;;-0.40;99.90;;;;;;5072713;28;20029;-65
2024/01/08 02:27:14;;;;;;;5.38;2.65;;;-0.40;99.90;;;;;;5072676;28;20522;-65
2024/01/08 02:29:40;;;;;;;6.57;2.85;;;-0.50;99.90;;;;;;5072617;28;20020;-65
2024/01/08 02:32:07;;;;;;;5.82;2.85;;;-0.40;99.90;;;;;;5072465;28;20080;-65
2024/01/08 02:34:33;;;;;;;5.82;2.83;;;-0.40;99.90;;;;;;5072546;28;20089;-65
2024/01/08 02:36:59;;;;;;;6.45;3.00;;;-0.40;99.90;;;;;;5072402;28;20096;-65
2024/01/08 02:39:24;;;;;;;6.20;3.30;;;-0.50;99.90;;;;;;5072394;28;20033;-65
2024/01/08 02:41:50;;;;;;;7.25;2.67;;;-0.50;99.90;;;;;;5072188;28;20060;-66
2024/01/08 02:44:16;;;;;;;5.88;2.67;;;-0.50;99.90;;;;;;5072279;28;20037;-65
2024/01/08 02:46:41;;;;;;;4.55;2.13;;;-0.50;99.90;;;;;;5072354;28;20037;-65
2024/01/08 02:49:07;;;;;;;8.13;3.03;;;-0.50;99.90;;;;;;5072474;28;20025;-65
2024/01/08 02:51:32;;;;;;;6.75;2.90;;;-0.50;99.90;;;;;;5072188;28;20514;-65
2024/01/08 02:53:58;;;;;;;4.00;2.00;;;-0.50;99.90;;;;;;5072313;28;20052;-65
2024/01/08 02:56:25;;;;;;;8.85;3.30;;;-0.50;99.90;;;;;;5072204;28;20021;-65
2024/01/08 02:58:51;;;;;;;7.65;3.20;;;-0.40;99.90;;;;;;5072199;28;20039;-65
2024/01/08 03:01:16;;;;;;;6.45;2.88;;;-0.40;99.90;;;;;;5072268;28;20547;-65
2024/01/08 03:03:42;;;;;;;6.05;1.92;;;-0.40;99.90;;;;;;5071957;28;20036;-64
2024/01/08 03:06:08;;;;;;;4.53;2.45;;;-0.30;99.90;;;;;;5072109;28;20086;-65
2024/01/08 03:08:33;;;;;;;6.65;3.33;;;-0.30;99.90;;;;;;5072030;28;20033;-66
2024/01/08 03:10:59;;;;;;;7.63;2.88;;;-0.40;99.90;;;;;;5072109;28;20029;-65
2024/01/08 03:13:24;;;;;;;6.20;3.05;;;-0.40;99.90;;;;;;5072118;28;20033;-65
2024/01/08 03:15:50;;;;;;;5.80;2.75;;;-0.30;99.90;;;;;;5072093;28;20041;-65
2024/01/08 03:18:15;;;;;;;5.57;2.50;;;-0.30;99.90;;;;;;5072020;28;20037;-64
2024/01/08 03:20:42;;;;;;;4.93;2.45;;;-0.30;99.90;;;;;;5071827;28;20040;-65
2024/01/08 03:23:09;;;;;;;2.53;1.20;;;-0.30;99.90;;;;;;5070813;28;20495;-65
2024/01/08 03:25:35;;;;;;;6.13;3.10;;;-0.30;99.90;;;;;;5071865;28;20025;-65
2024/01/08 03:28:01;;;;;;;6.32;2.60;;;-0.20;99.90;;;;;;5071887;28;20557;-64
2024/01/08 03:30:26;;;;;;;6.82;2.90;;;-0.20;99.90;;;;;;5070901;28;20032;-65
2024/01/08 03:32:52;;;;;;;5.78;3.15;;;-0.20;99.90;;;;;;5070584;28;20051;-65
2024/01/08 03:35:18;;;;;;;7.60;3.35;;;-0.20;99.90;;;;;;5071758;28;20397;-65
2024/01/08 03:37:44;;;;;;;5.35;2.60;;;-0.20;99.90;;;;;;5071680;28;20036;-66
2024/01/08 03:40:11;;;;;;;3.03;1.67;;;-0.10;99.90;;;;;;5071891;28;20060;-65
2024/01/08 03:42:36;;;;;;;7.00;3.10;;;-0.20;99.90;;;;;;5073274;28;20041;-65
2024/01/08 03:45:02;;;;;;;5.72;2.88;;;-0.20;99.90;;;;;;5075691;28;20064;-65
2024/01/08 03:47:28;;;;;;;7.88;2.65;;;-0.10;99.90;;;;;;5075652;28;20032;-65
2024/01/08 03:49:54;;;;;;;5.35;3.05;;;-0.10;99.90;;;;;;5075458;28;20494;-65
2024/01/08 03:52:20;;;;;;;8.23;2.75;;;-0.10;99.90;;;;;;5075382;28;20048;-66
2024/01/08 03:54:46;;;;;;;6.70;2.88;;;-0.10;99.90;;;;;;5075483;28;20029;-65
2024/01/08 03:57:11;;;;;;;4.95;2.97;;;-0.10;99.90;;;;;;5075383;28;20029;-65
2024/01/08 03:59:37;;;;;;;5.25;2.80;;;-0.10;99.90;;;;;;5075468;28;20029;-65
2024/01/08 04:02:03;;;;;;;6.55;2.90;;;-0.10;99.90;;;;;;5075206;28;20051;-65
2024/01/08 04:04:29;;;;;;;7.50;2.53;;;0.00;99.90;;;;;;5075231;28;20048;-65
2024/01/08 04:06:55;;;;;;;3.50;2.17;;;0.00;99.90;;;;;;5075189;28;20515;-65
2024/01/08 04:09:20;;;;;;;7.45;2.30;;;0.00;99.90;;;;;;5075279;28;20032;-65
2024/01/08 04:11:46;;;;;;;6.68;2.85;;;0.00;99.90;;;;;;5075254;28;20025;-65
2024/01/08 04:14:14;;;;;;;6.30;2.63;;;0.00;99.90;;;;;;5075213;28;20049;-65
2024/01/08 04:16:40;;;;;;;2.63;1.45;;;0.00;99.90;;;;;;5075134;28;20120;-65
2024/01/08 04:19:06;;;;;;;5.40;2.60;;;0.00;99.90;;;;;;5075008;28;20059;-65
2024/01/08 04:21:32;;;;;;;6.90;2.88;;;0.00;99.90;;;;;;5074992;28;20032;-65
2024/01/08 04:23:58;;;;;;;10.43;3.58;;;0.00;99.90;;;;;;5074894;28;20056;-65
2024/01/08 04:26:25;;;;;;;4.20;2.58;;;-0.10;99.90;;;;;;5074971;28;20025;-65
2024/01/08 04:28:51;;;;;;;5.15;2.30;;;0.00;99.90;;;;;;5074914;28;20032;-64
2024/01/08 04:31:18;;;;;;;6.78;2.88;;;0.00;99.90;;;;;;5075019;28;20101;-65
2024/01/08 04:33:44;;;;;;;6.40;3.13;;;-0.10;99.90;;;;;;5074688;28;20033;-65
2024/01/08 04:36:10;;;;;;;4.85;2.75;;;-0.10;99.90;;;;;;5074915;28;20029;-65
2024/01/08 04:38:36;;;;;;;5.22;2.80;;;-0.10;99.90;;;;;;5074626;28;20048;-65
2024/01/08 04:41:02;;;;;;;6.07;3.30;;;-0.10;99.90;;;;;;5074578;28;20380;-65
2024/01/08 04:43:27;;;;;;;6.70;2.63;;;-0.10;99.90;;;;;;5074619;28;20037;-65
2024/01/08 04:45:53;;;;;;;8.98;3.20;;;-0.10;99.90;;;;;;5074588;28;20029;-65
2024/01/08 04:48:18;;;;;;;6.75;2.88;;;-0.10;99.90;;;;;;5074382;28;20025;-65
2024/01/08 04:50:44;;;;;;;9.77;3.42;;;-0.10;99.90;;;;;;5074512;28;20048;-66
2024/01/08 04:53:09;;;;;;;5.75;2.83;;;-0.10;99.90;;;;;;5073598;28;20032;-65
2024/01/08 04:55:35;;;;;;;7.50;3.05;;;-0.10;99.90;;;;;;5073962;28;20041;-65
2024/01/08 04:58:01;;;;;;;5.35;3.03;;;-0.10;99.90;;;;;;5074443;28;20036;-65
2024/01/08 05:00:26;;;;;;;6.68;3.13;;;0.00;99.90;;;;;;5074305;28;20040;-65
2024/01/08 05:02:52;;;;;;;4.32;2.50;;;0.00;99.90;;;;;;5073930;28;20025;-65
2024/01/08 05:05:17;;;;;;;8.38;3.05;;;0.00;99.90;;;;;;5074200;28;20091;-65
2024/01/08 05:07:43;;;;;;;7.97;4.20;;;0.00;99.90;;;;;;5074046;28;20040;-65
2024/01/08 05:10:09;;;;;;;6.10;3.22;;;0.00;99.90;;;;;;5074166;28;20093;-65
2024/01/08 05:12:34;;;;;;;6.32;2.83;;;0.00;99.90;;;;;;5074089;28;20037;-65
2024/01/08 05:15:01;;;;;;;7.65;2.65;;;0.10;99.90;;;;;;5074072;28;20045;-65
2024/01/08 05:17:27;;;;;;;10.88;4.22;;;0.10;99.90;;;;;;5073911;28;20032;-65
2024/01/08 05:19:53;;;;;;;7.45;3.80;;;0.10;99.90;;;;;;5073835;28;20112;-66
2024/01/08 05:22:19;;;;;;;6.38;3.35;;;0.10;99.90;;;;;;5073846;28;20033;-66
2024/01/08 05:24:45;;;;;;;5.82;3.13;;;0.10;99.90;;;;;;5073754;28;20043;-65
2024/01/08 05:27:11;;;;;;;9.38;3.92;;;0.10;99.90;;;;;;5073824;28;20022;-65
2024/01/08 05:29:36;;;;;;;8.32;3.08;;;0.10;99.90;;;;;;5073794;28;20062;-65
2024/01/08 05:32:02;;;;;;;6.65;3.17;;;0.10;99.90;;;;;;5073479;28;20079;-65
2024/01/08 05:34:28;;;;;;;7.95;3.80;;;0.10;99.90;;;;;;5072617;28;20044;-65
2024/01/08 05:36:53;;;;;;;7.30;2.72;;;0.10;99.90;;;;;;5072512;28;20052;-65
2024/01/08 05:39:19;;;;;;;11.13;4.18;;;0.20;99.90;;;;;;5073616;28;20035;-65
2024/01/08 05:41:45;;;;;;;9.00;3.60;;;0.20;99.90;;;;;;5073384;28;20053;-65
2024/01/08 05:44:11;;;;;;;9.27;4.00;;;0.20;99.90;;;;;;5073368;28;20029;-65
2024/01/08 05:46:41;;;;;;;5.13;2.92;;;0.20;99.90;;;;;;5073380;28;20036;-65
2024/01/08 05:49:07;;;;;;;9.80;4.30;;;0.20;99.90;;;;;;5073498;28;20028;-65
2024/01/08 05:51:33;;;;;;;12.48;4.10;;;0.10;99.90;;;;;;5073293;28;20084;-65
2024/01/08 05:53:58;;;;;;;10.10;4.15;;;0.20;99.90;;;;;;5073234;28;20028;-65
2024/01/08 05:56:24;;;;;;;9.93;3.45;;;0.10;99.90;;;;;;5073172;28;20021;-65
2024/01/08 05:58:49;;;;;;;8.68;3.95;;;0.20;99.90;;;;;;5073183;28;20502;-65
2024/01/08 06:01:17;;;;;;;5.95;3.42;;;0.20;99.90;;;;;;5073050;28;20059;-65
2024/01/08 06:03:43;;;;;;;3.42;2.15;;;0.20;99.90;;;;;;5072834;28;20033;-64
2024/01/08 06:06:12;;;;;;;7.50;3.60;;;0.20;99.90;;;;;;5072671;28;20025;-65
2024/01/08 06:08:40;;;;;;;7.88;3.97;;;0.20;99.90;;;;;;5072949;28;20048;-65
2024/01/08 06:11:09;;;;;;;10.65;4.20;;;0.10;99.90;;;;;;5072985;28;20021;-65
2024/01/08 06:13:36;;;;;;;9.85;4.72;;;0.20;99.90;;;;;;5072871;28;20093;-65
2024/01/08 06:16:02;;;;;;;10.23;4.28;;;0.20;99.90;;;;;;5072866;28;20123;-65
2024/01/08 06:18:29;;;;;;;7.68;4.03;;;0.20;99.90;;;;;;5072887;28;20039;-65
2024/01/08 06:20:55;;;;;;;12.13;4.35;;;0.20;99.90;;;;;;5071611;28;20029;-65
2024/01/08 06:23:21;;;;;;;11.60;4.30;;;0.20;99.90;;;;;;5072699;28;20121;-65
2024/01/08 06:25:46;;;;;;;6.35;2.55;;;0.20;99.90;;;;;;5072707;28;20051;-65
2024/01/08 06:28:12;;;;;;;7.63;3.72;;;0.20;99.90;;;;;;5072620;28;20029;-65
2024/01/08 06:30:38;;;;;;;6.22;3.25;;;0.20;99.90;;;;;;5072570;28;20036;-65
2024/01/08 06:33:05;;;;;;;6.95;3.67;;;0.20;99.90;;;;;;5072357;28;20032;-65
2024/01/08 06:35:31;;;;;;;3.28;2.38;;;0.30;99.90;;;;;;5072692;28;20021;-65
2024/01/08 06:37:56;;;;;;;7.75;4.05;;;0.20;99.90;;;;;;5072504;28;20048;-65
2024/01/08 06:40:22;;;;;;;6.15;3.13;;;0.30;99.90;;;;;;5072426;28;20063;-66
2024/01/08 06:42:48;;;;;;;7.47;3.53;;;0.30;99.90;;;;;;5072056;28;20069;-65
2024/01/08 06:45:14;;;;;;;11.57;4.30;;;0.30;99.90;;;;;;5072440;28;20025;-65
2024/01/08 06:47:39;;;;;;;9.00;4.18;;;0.30;99.90;;;;;;5072378;28;20022;-65
2024/01/08 06:50:05;;;;;;;7.00;4.22;;;0.30;99.90;;;;;;5072324;28;20029;-65
2024/01/08 06:52:31;;;;;;;7.65;3.30;;;0.30;99.90;;;;;;5072266;28;20029;-65
2024/01/08 06:54:57;;;;;;;10.05;5.18;;;0.40;99.90;;;;;;5072217;28;20112;-65
2024/01/08 06:57:22;;;;;;;7.45;3.25;;;0.30;99.90;;;;;;5072173;28;20025;-65
2024/01/08 06:59:49;;;;;;;7.43;3.72;;;0.30;99.90;;;;;;5072197;28;20578;-65
2024/01/08 07:02:15;;;;;;;7.82;2.92;;;0.30;99.90;;;;;;5071926;28;20037;-65
2024/01/08 07:04:41;;;;;;;7.78;4.28;;;0.30;99.90;;;;;;5071965;28;20093;-65
2024/01/08 07:07:06;;;;;;;6.47;3.67;;;0.30;99.90;;;;;;5072033;28;20033;-65
2024/01/08 07:09:32;;;;;;;6.72;4.18;;;0.30;99.90;;;;;;5072170;28;20040;-64
2024/01/08 07:11:58;;;;;;;7.32;2.85;;;0.30;99.90;;;;;;5071062;28;20033;-65
2024/01/08 07:14:23;;;;;;;10.10;3.05;;;0.30;99.90;;;;;;5071498;28;20036;-64
2024/01/08 07:16:49;;;;;;;9.00;3.25;;;0.40;99.90;;;;;;5072588;28;20048;-64
2024/01/08 07:19:14;;;;;;;8.95;4.07;;;0.40;99.90;;;;;;5076237;28;20068;-65
2024/01/08 07:21:40;;;;;;;13.40;3.75;;;0.40;99.90;;;;;;5076130;28;20033;-65
2024/01/08 07:24:06;;;;;;;8.65;3.97;;;0.40;99.90;;;;;;5076149;28;20052;-64
2024/01/08 07:26:31;;;;;;;7.95;3.35;;;0.40;99.90;;;;;;5062366;28;20057;-65
2024/01/08 07:28:57;;;;;;;7.13;4.28;;;0.40;99.90;;;;;;5054616;28;20041;-64
2024/01/08 07:31:22;;;;;;;7.43;3.35;;;0.50;99.90;;;;;;5055337;28;20041;-64
2024/01/08 07:33:48;;;;;;;10.10;4.10;;;0.50;99.90;;;;;;5055690;28;20085;-64
2024/01/08 07:36:14;;;;;;;10.55;4.45;;;0.40;99.90;;;;;;5054887;28;20053;-65
2024/01/08 07:38:39;;;;;;;7.35;3.72;;;0.40;99.90;;;;;;5055763;28;20060;-64
2024/01/08 07:41:08;;;;;;;7.35;3.65;;;0.40;99.90;;;;;;5055341;28;20516;-64
2024/01/08 07:43:35;;;;;;;7.57;3.22;;;0.40;99.90;;;;;;5055643;28;20045;-65
2024/01/08 07:46:01;;;;;;;9.77;4.82;;;0.50;99.90;;;;;;5055721;28;20048;-65
2024/01/08 07:48:27;;;;;;;10.10;3.30;;;0.50;99.90;;;;;;5055673;28;20689;-65
2024/01/08 07:50:52;;;;;;;9.18;3.50;;;0.50;99.90;;;;;;5055573;28;20026;-65
2024/01/08 07:53:18;;;;;;;6.43;3.30;;;0.50;99.90;;;;;;5055610;28;20046;-65
2024/01/08 07:55:44;;;;;;;10.32;4.20;;;0.60;99.90;;;;;;5055463;28;20033;-65
2024/01/08 07:58:13;;;;;;;12.73;4.10;;;0.60;99.90;;;;;;5055471;28;20033;-65
2024/01/08 08:00:39;;;;;;;9.13;4.15;;;0.60;99.90;;;;;;5055474;28;20013;-65
2024/01/08 08:03:05;;;;;;;8.73;3.92;;;0.60;99.90;;;;;;5055148;28;20089;-65
2024/01/08 08:05:31;;;;;;;9.07;3.90;;;0.60;99.90;;;;;;5055429;28;20022;-64
2024/01/08 08:07:57;;;;;;;8.48;4.07;;;0.60;99.90;;;;;;5055329;28;20026;-65
2024/01/08 08:10:22;;;;;;;10.13;3.33;;;0.60;99.90;;;;;;5055198;28;20037;-64
2024/01/08 08:12:48;;;;;;;6.72;3.38;;;0.60;99.90;;;;;;5055268;28;20017;-65
2024/01/08 08:15:13;;;;;;;5.97;3.33;;;0.60;99.90;;;;;;5055006;28;20104;-65
2024/01/08 08:17:42;;;;;;;8.23;3.10;;;0.60;99.90;;;;;;5094069;28;20025;-65
2024/01/08 08:20:09;;;;;;;8.57;3.65;;;0.60;99.90;;;;;;5095172;28;20029;-65
2024/01/08 08:22:36;;;;;;;4.20;2.88;;;0.60;99.90;;;;;;5095095;28;20038;-64
2024/01/08 08:25:02;;;;;;;7.57;3.85;;;0.60;99.90;;;;;;5093161;28;20155;-65
2024/01/08 08:27:28;;;;;;;8.10;3.75;;;0.60;99.90;;;;;;5093314;28;20029;-65
2024/01/08 08:29:54;;;;;;;7.10;3.28;;;0.60;99.90;;;;;;5094851;28;20055;-65
2024/01/08 08:32:20;;;;;;;7.38;2.15;;;0.70;99.90;;;;;;5094520;28;20039;-66
2024/01/08 08:34:46;;;;;;;5.35;2.55;;;0.70;99.90;;;;;;5094881;28;20056;-66
2024/01/08 08:37:11;;;;;;;11.07;3.70;;;0.70;99.90;;;;;;5094761;28;20024;-65
2024/01/08 08:39:38;;;;;;;6.30;3.35;;;0.60;99.90;;;;;;5094766;28;20509;-65
2024/01/08 08:42:05;;;;;;;6.60;3.10;;;0.60;99.90;;;;;;5094535;28;20056;-65
2024/01/08 08:44:31;;;;;;;4.93;2.38;;;0.60;99.90;;;;;;5094767;28;20044;-65
2024/01/08 08:46:58;;;;;;;7.50;3.45;;;0.60;99.90;;;;;;5094662;28;20016;-66
2024/01/08 08:49:24;;;;;;;8.70;4.28;;;0.60;99.90;;;;;;5093778;28;20032;-65
2024/01/08 08:51:50;;;;;;;5.88;2.83;;;0.60;99.90;;;;;;5094406;28;20024;-65
2024/01/08 08:54:15;;;;;;;7.95;3.83;;;0.60;99.90;;;;;;5094224;28;20580;-65
2024/01/08 08:56:41;;;;;;;8.13;3.53;;;0.50;99.90;;;;;;5094128;28;20107;-65
2024/01/08 08:59:07;;;;;;;6.22;3.35;;;0.50;99.90;;;;;;5094121;28;20441;-65
2024/01/08 09:01:33;;;;;;;8.77;3.45;;;0.50;99.90;;;;;;5093878;28;20051;-68
2024/01/08 09:03:59;;;;;;;6.47;3.65;;;0.40;99.90;;;;;;5076612;28;20491;-65
2024/01/08 09:06:25;;;;;;;7.47;4.00;;;0.50;99.90;;;;;;5053832;28;20040;-65
2024/01/08 09:08:51;;;;;;;10.88;3.75;;;0.50;99.90;;;;;;5051915;28;20041;-65
2024/01/08 09:11:17;;;;;;;5.40;2.78;;;0.60;99.90;;;;;;5052269;28;20030;-65
2024/01/08 09:13:43;;;;;;;8.40;3.90;;;0.50;99.90;;;;;;5052148;28;20025;-64
2024/01/08 09:16:14;;;;;;;7.47;4.13;;;0.60;99.90;;;;;;5052735;28;20079;-65
2024/01/08 09:18:40;;;;;;;7.90;3.88;;;0.50;99.90;;;;;;5053091;28;20029;-65
2024/01/08 09:21:09;;;;;;;5.40;2.58;;;0.50;99.90;;;;;;5053235;28;20026;-65
2024/01/08 09:23:35;;;;;;;8.18;4.10;;;0.50;99.90;;;;;;5053586;28;20029;-65
2024/01/08 09:26:01;;;;;;;7.40;3.72;;;0.50;99.90;;;;;;5053847;28;20028;-65
2024/01/08 09:28:26;;;;;;;8.90;3.85;;;0.50;99.90;;;;;;5053761;28;20033;-65
2024/01/08 09:30:53;;;;;;;8.15;3.28;;;0.50;99.90;;;;;;5053635;28;20033;-65
2024/01/08 09:33:19;;;;;;;7.28;3.60;;;0.50;99.90;;;;;;5053566;28;20054;-65
2024/01/08 09:35:45;;;;;;;9.52;3.03;;;0.50;99.90;;;;;;5053537;28;20026;-65
2024/01/08 09:38:10;;;;;;;6.75;3.58;;;0.60;99.90;;;;;;5053567;28;20068;-65
2024/01/08 09:40:36;;;;;;;15.77;4.22;;;0.60;99.90;;;;;;5052909;28;20064;-65
2024/01/08 09:43:06;;;;;;;3.53;1.95;;;0.50;99.90;;;;;;5053262;28;20044;-65
2024/01/08 09:45:32;;;;;;;5.40;2.38;;;0.60;99.90;;;;;;5053433;28;20026;-65
2024/01/08 09:47:58;;;;;;;5.35;3.13;;;0.50;99.90;;;;;;5053419;28;20057;-65
2024/01/08 09:50:28;;;;;;;3.88;1.70;;;0.60;99.90;;;;;;5053263;28;20021;-65
2024/01/08 09:52:55;;;;;;;11.63;4.20;;;0.60;99.90;;;;;;5053337;28;20053;-65
2024/01/08 09:55:21;;;;;;;6.88;3.15;;;0.50;99.90;;;;;;5052294;28;20026;-65
2024/01/08 09:57:47;;;;;;;7.43;3.85;;;0.50;99.90;;;;;;5053356;28;20029;-65
2024/01/08 10:00:14;;;;;;;4.35;2.08;;;0.50;99.90;;;;;;5053199;28;20029;-65
2024/01/08 10:02:40;;;;;;;7.53;3.83;;;0.50;99.90;;;;;;5052865;28;20086;-65
2024/01/08 10:05:07;;;;;;;6.40;3.85;;;0.60;99.90;;;;;;5053017;28;20037;-65
2024/01/08 10:07:36;;;;;;;6.60;3.33;;;0.50;99.90;;;;;;5053015;28;20032;-65
2024/01/08 10:10:03;;;;;;;4.72;2.30;;;0.50;99.90;;;;;;5052989;28;20030;-65
2024/01/08 10:12:32;;;;;;;8.13;3.90;;;0.50;99.90;;;;;;5052972;28;20124;-65
2024/01/08 10:14:58;;;;;;;5.80;2.75;;;0.50;99.90;;;;;;5052971;28;20093;-65
2024/01/08 10:17:23;;;;;;;7.05;2.60;;;0.60;99.90;;;;;;5052790;28;20095;-65
2024/01/08 10:19:49;;;;;;;14.30;3.28;;;0.70;99.90;;;;;;5052816;28;20037;-65
2024/01/08 10:22:15;;;;;;;6.97;3.67;;;0.80;99.90;;;;;;5051837;28;20030;-65
2024/01/08 10:24:43;;;;;;;4.78;2.28;;;0.80;99.90;;;;;;5052734;28;20103;-63
2024/01/08 10:27:11;;;;;;;6.20;3.15;;;0.90;99.90;;;;;;5051795;28;20022;-65
2024/01/08 10:29:38;;;;;;;7.22;2.90;;;0.90;99.90;;;;;;5068928;28;20022;-65
2024/01/08 10:32:10;;;;;;;7.38;3.80;;;1.00;99.90;;;;;;5071003;28;20074;-66
2024/01/08 10:34:36;;;;;;;7.75;4.00;;;1.10;99.90;;;;;;5072123;28;20075;-66
2024/01/08 10:37:02;;;;;;;9.30;3.75;;;1.10;99.90;;;;;;5063176;28;20037;-66
2024/01/08 10:39:31;;;;;;;4.03;2.47;;;1.20;99.90;;;;;;5061253;28;20108;-66
2024/01/08 10:41:57;;;;;;;5.30;3.67;;;1.20;99.90;;;;;;5055695;28;20101;-65
2024/01/08 10:44:24;;;;;;;8.05;3.40;;;1.20;99.90;;;;;;5056742;28;20022;-66
2024/01/08 10:46:57;;;;;;;7.18;3.67;;;1.30;99.90;;;;;;5068092;28;20078;-66
2024/01/08 10:49:30;;;;;;;3.92;2.08;;;1.40;99.90;;;;;;5065614;28;20013;-66
2024/01/08 10:51:57;;;;;;;7.13;3.58;;;1.30;99.90;;;;;;5089965;28;20032;-66
2024/01/08 10:54:24;;;;;;;6.97;3.05;;;1.30;99.90;;;;;;5086405;28;20025;-66
2024/01/08 10:56:53;;;;;;;5.05;2.63;;;1.30;99.90;;;;;;5081577;28;20020;-66
2024/01/08 10:59:22;;;;;;;5.53;2.65;;;1.30;99.90;;;;;;5078454;28;20036;-66
2024/01/08 11:01:50;;;;;;;7.20;2.88;;;1.30;99.90;;;;;;5082240;28;20498;-66
2024/01/08 11:04:15;;;;;;;6.43;3.47;;;1.30;99.90;;;;;;5072513;28;20036;-66
2024/01/08 11:06:42;;;;;;;3.58;2.45;;;1.40;99.90;;;;;;5065396;28;20090;-66
2024/01/08 11:09:29;;;;;;;6.28;3.03;;;1.40;99.90;;;;;;5066247;28;20039;-66
2024/01/08 11:11:55;;;;;;;5.80;3.25;;;1.50;99.90;;;;;;5069830;28;20660;-66
2024/01/08 11:14:23;;;;;;;5.75;3.05;;;1.50;99.90;;;;;;5067244;28;20033;-66
2024/01/08 11:16:50;;;;;;;7.57;3.35;;;1.50;99.90;;;;;;5066562;28;20137;-65
2024/01/08 11:19:18;;;;;;;6.55;3.10;;;1.60;99.90;;;;;;5065244;28;20025;-65
2024/01/08 11:21:45;;;;;;;6.53;3.20;;;1.60;99.90;;;;;;5068910;28;20021;-65
2024/01/08 11:24:11;;;;;;;4.22;3.00;;;1.70;99.90;;;;;;5069141;28;20020;-65
2024/01/08 11:26:44;;;;;;;8.23;3.22;;;1.60;99.90;;;;;;5065228;28;20140;-65
2024/01/08 11:29:11;;;;;;;7.45;3.17;;;1.60;99.90;;;;;;5065954;28;20021;-65
2024/01/08 11:32:17;;;;;;;7.80;3.92;;;1.60;99.90;;;;;;5067042;28;20014;-66
2024/01/08 11:34:52;;;;;;;5.70;3.33;;;1.60;99.90;;;;;;5065462;28;20021;-65
2024/01/08 11:37:31;;;;;;;6.03;3.42;;;1.50;99.90;;;;;;5065067;28;20033;-65
2024/01/08 11:39:57;;;;;;;6.93;3.10;;;1.50;99.90;;;;;;5070359;28;20029;-65
2024/01/08 11:42:23;;;;;;;9.45;2.92;;;1.40;99.90;;;;;;5071302;28;20053;-65
2024/01/08 11:44:49;;;;;;;8.02;3.25;;;1.30;99.90;;;;;;5071355;28;20031;-65
2024/01/08 11:47:15;;;;;;;5.82;2.08;;;1.30;99.90;;;;;;5071676;28;20053;-65
2024/01/08 11:49:41;;;;;;;6.85;3.30;;;1.30;99.90;;;;;;5070386;28;20472;-66
2024/01/08 11:52:08;;;;;;;6.18;2.63;;;1.30;99.90;;;;;;5071701;28;20021;-65
2024/01/08 11:54:34;;;;;;;5.95;2.75;;;1.30;99.90;;;;;;5070628;28;20037;-65
2024/01/08 11:57:01;;;;;;;3.83;2.50;;;1.30;99.90;;;;;;5071641;28;20029;-65
2024/01/08 11:59:31;;;;;;;2.83;1.70;;;1.20;99.90;;;;;;5071532;28;20032;-65
2024/01/08 12:02:16;;;;;;;2.65;1.60;;;1.10;99.90;;;;;;5071381;28;20033;-65
2024/01/08 12:04:51;;;;;;;4.43;1.83;;;1.10;99.90;;;;;;5075147;28;20033;-65
2024/01/08 12:07:17;;;;;;;2.83;1.13;;;1.10;99.90;;;;;;5075366;28;20048;-64
2024/01/08 12:09:43;;;;;;;1.67;1.00;;;1.00;99.90;;;;;;5075321;28;20021;-65
2024/01/08 12:12:09;;;;;;;2.75;1.90;;;1.00;99.90;;;;;;5075100;28;20056;-65
2024/01/08 12:14:36;;;;;;;3.25;1.60;;;1.00;99.90;;;;;;5075250;28;20013;-65
2024/01/08 12:17:03;;;;;;;2.60;1.40;;;1.00;99.90;;;;;;5075139;28;20053;-65
2024/01/08 12:19:54;;;;;;;3.58;1.60;;;1.10;99.90;;;;;;5075127;28;20108;-65
2024/01/08 12:22:21;;;;;;;4.30;1.27;;;1.20;99.90;;;;;;5074904;28;20048;-65
2024/01/08 12:24:52;;;;;;;4.05;1.88;;;1.20;99.80;;;;;;5074977;28;20123;-66
2024/01/08 12:27:20;;;;;;;4.20;1.77;;;1.30;99.90;;;;;;5074995;28;20075;-65
2024/01/08 12:29:47;;;;;;;3.78;1.35;;;1.40;99.90;;;;;;5074977;28;20040;-66
2024/01/08 12:32:19;;;;;;;3.17;1.15;;;1.50;97.70;;;;;;5074653;28;20025;-65
2024/01/08 12:34:45;;;;;;;2.70;1.33;;;1.50;98.20;;;;;;5074779;28;20066;-65
2024/01/08 12:37:12;;;;;;;3.72;1.30;;;1.50;93.90;;;;;;5074674;28;20116;-66
2024/01/08 12:39:38;;;;;;;1.38;0.85;;;1.60;92.70;;;;;;5074822;28;20055;-65
2024/01/08 12:42:07;;;;;;;1.95;1.00;;;1.60;93.20;;;;;;5074651;28;20053;-66
2024/01/08 12:44:33;;;;;;;3.10;1.50;;;1.50;91.60;;;;;;5074516;28;20032;-65
2024/01/08 12:47:00;;;;;;;2.92;1.67;;;1.60;91.40;;;;;;5074497;28;20076;-65
2024/01/08 12:49:26;;;;;;;1.13;0.68;;;1.60;92.00;;;;;;5074538;28;20021;-65